createdAt,value
2022-09-01T00:01:42.284Z,88.17
2022-09-01T00:04:11.328Z,87.88
2022-09-01T00:06:38.618Z,87.99
2022-09-01T00:09:08.969Z,87.51
2022-09-01T00:11:36.751Z,87.83
2022-09-01T00:14:05.874Z,87.46
2022-09-01T00:16:54.021Z,88.08
2022-09-01T00:19:22.051Z,87.74
2022-09-01T00:21:49.048Z,87.94
2022-09-01T00:24:17.914Z,86.86
2022-09-01T00:26:45.995Z,86.85
2022-09-01T00:29:13.778Z,86.45
2022-09-01T00:31:41.421Z,86.54
2022-09-01T00:34:08.388Z,86.47
2022-09-01T00:36:35.202Z,86.42
2022-09-01T00:39:02.095Z,86.67
2022-09-01T00:41:32.436Z,86.17
2022-09-01T00:44:02.180Z,86.46
2022-09-01T00:46:34.009Z,85.97
2022-09-01T00:49:08.278Z,85.94
2022-09-01T00:51:38.500Z,85.86
2022-09-01T00:54:08.869Z,85.29
2022-09-01T00:56:40.973Z,85.53
2022-09-01T00:59:19.730Z,84.77
2022-09-01T01:01:47.051Z,84.71
2022-09-01T01:04:18.027Z,85.14
2022-09-01T01:06:50.616Z,84.45
2022-09-01T01:09:22.159Z,83.89
2022-09-01T01:11:49.265Z,83.44
2022-09-01T01:14:17.442Z,82.65
2022-09-01T01:16:52.094Z,82.27
2022-09-01T01:20:01.262Z,82.11
2022-09-01T01:23:07.793Z,81.96
2022-09-01T01:25:44.686Z,81.42
2022-09-01T01:28:18.745Z,81.43
2022-09-01T01:30:58.099Z,81.68
2022-09-01T01:33:32.095Z,81.38
2022-09-01T01:35:59.947Z,81.75
2022-09-01T01:38:30.185Z,82.36
2022-09-01T01:40:58.215Z,81.71
2022-09-01T01:43:27.675Z,82.38
2022-09-01T01:45:59.039Z,82.00
2022-09-01T01:48:34.504Z,82.58
2022-09-01T01:51:01.947Z,82.40
2022-09-01T01:53:29.536Z,82.55
2022-09-01T01:55:59.053Z,82.52
2022-09-01T01:58:29.224Z,82.55
2022-09-01T02:00:57.389Z,82.79
2022-09-01T02:03:28.907Z,82.31
2022-09-01T02:05:56.135Z,82.45
2022-09-01T02:08:26.202Z,82.37
2022-09-01T02:10:55.489Z,82.36
2022-09-01T02:13:31.344Z,82.13
2022-09-01T02:16:13.087Z,82.40
2022-09-01T02:18:49.849Z,82.16
2022-09-01T02:21:20.626Z,83.43
2022-09-01T02:23:59.551Z,83.16
2022-09-01T02:26:32.228Z,82.76
2022-09-01T02:29:04.789Z,82.94
2022-09-01T02:31:39.907Z,83.63
2022-09-01T02:34:14.015Z,83.38
2022-09-01T02:36:48.412Z,84.07
2022-09-01T02:39:23.279Z,83.81
2022-09-01T02:41:51.294Z,84.21
2022-09-01T02:44:23.759Z,83.83
2022-09-01T02:46:51.253Z,84.38
2022-09-01T02:49:28.690Z,84.30
2022-09-01T02:51:59.630Z,84.25
2022-09-01T02:54:28.817Z,83.73
2022-09-01T02:56:55.627Z,84.53
2022-09-01T02:59:27.501Z,84.37
2022-09-01T03:01:57.802Z,84.45
2022-09-01T03:04:24.990Z,84.32
2022-09-01T03:06:54.849Z,84.79
2022-09-01T03:09:23.048Z,84.88
2022-09-01T03:11:51.954Z,84.27
2022-09-01T03:14:20.336Z,84.54
2022-09-01T03:16:47.647Z,84.68
2022-09-01T03:19:15.185Z,84.82
2022-09-01T03:21:44.404Z,84.43
2022-09-01T03:24:16.815Z,85.41
2022-09-01T03:26:45.569Z,85.11
2022-09-01T03:29:19.291Z,85.33
2022-09-01T03:31:47.097Z,84.88
2022-09-01T03:34:16.480Z,85.51
2022-09-01T03:36:50.903Z,85.13
2022-09-01T03:39:26.239Z,85.46
2022-09-01T03:41:53.985Z,85.20
2022-09-01T03:44:20.948Z,84.62
2022-09-01T03:46:47.788Z,84.84
2022-09-01T03:49:15.688Z,85.02
2022-09-01T03:51:45.135Z,84.94
2022-09-01T03:54:12.448Z,84.92
2022-09-01T03:56:42.977Z,84.71
2022-09-01T03:59:17.239Z,83.94
2022-09-01T04:01:46.767Z,85.20
2022-09-01T04:04:16.573Z,85.22
2022-09-01T04:06:45.526Z,84.59
2022-09-01T04:09:13.886Z,84.58
2022-09-01T04:11:46.389Z,84.07
2022-09-01T04:14:15.205Z,84.42
2022-09-01T04:17:02.352Z,84.22
2022-09-01T04:19:30.670Z,84.03
2022-09-01T04:22:01.174Z,84.08
2022-09-01T04:24:45.031Z,84.40
2022-09-01T04:27:13.711Z,83.71
2022-09-01T04:29:41.867Z,83.86
2022-09-01T04:32:13.168Z,85.00
2022-09-01T04:34:43.649Z,84.19
2022-09-01T04:37:19.488Z,84.73
2022-09-01T04:39:57.149Z,84.61
2022-09-01T04:42:29.075Z,84.59
2022-09-01T04:44:57.681Z,85.44
2022-09-01T04:47:35.437Z,85.25
2022-09-01T04:50:14.887Z,84.82
2022-09-01T04:53:02.138Z,84.36
2022-09-01T04:55:32.184Z,85.11
2022-09-01T04:58:08.308Z,85.47
2022-09-01T05:00:37.418Z,85.28
2022-09-01T05:03:04.860Z,85.56
2022-09-01T05:06:02.594Z,85.19
2022-09-01T05:08:32.717Z,85.89
2022-09-01T05:11:08.009Z,85.41
2022-09-01T05:13:48.085Z,85.68
2022-09-01T05:16:25.101Z,86.03
2022-09-01T05:18:57.954Z,85.08
2022-09-01T05:21:29.939Z,85.43
2022-09-01T05:24:01.453Z,85.65
2022-09-01T05:26:31.190Z,84.95
2022-09-01T05:29:01.326Z,83.97
2022-09-01T05:31:37.950Z,84.21
2022-09-01T05:34:05.486Z,84.19
2022-09-01T05:36:33.589Z,83.54
2022-09-01T05:39:01.914Z,84.37
2022-09-01T05:41:29.342Z,84.04
2022-09-01T05:44:00.543Z,84.96
2022-09-01T05:46:28.797Z,84.22
2022-09-01T05:48:57.541Z,84.34
2022-09-01T05:51:46.381Z,83.45
2022-09-01T05:54:18.663Z,81.55
2022-09-01T05:56:46.131Z,80.32
2022-09-01T05:59:26.620Z,76.73
2022-09-01T06:02:00.904Z,75.79
2022-09-01T06:04:28.036Z,74.94
2022-09-01T06:07:16.395Z,72.34
2022-09-01T06:09:53.791Z,69.22
2022-09-01T06:12:24.039Z,69.00
2022-09-01T06:14:53.970Z,69.12
2022-09-01T06:17:25.307Z,69.18
2022-09-01T06:19:57.073Z,68.97
2022-09-01T06:22:26.848Z,68.55
2022-09-01T06:24:59.483Z,67.43
2022-09-01T06:27:33.190Z,66.67
2022-09-01T06:30:00.331Z,63.88
2022-09-01T06:32:27.998Z,62.45
2022-09-01T06:34:58.258Z,62.63
2022-09-01T06:37:26.875Z,62.73
2022-09-01T06:39:57.943Z,61.50
2022-09-01T06:42:26.171Z,59.82
2022-09-01T06:44:59.851Z,58.58
2022-09-01T06:47:28.721Z,58.66
2022-09-01T06:49:59.021Z,59.68
2022-09-01T06:52:28.199Z,60.08
2022-09-01T06:54:56.014Z,61.29
2022-09-01T07:00:21.087Z,57.77
2022-09-01T07:02:54.832Z,56.20
2022-09-01T07:12:24.499Z,58.34
2022-09-01T07:17:42.353Z,55.67
2022-09-01T07:23:07.065Z,55.34
2022-09-01T07:28:37.958Z,55.16
2022-09-01T07:39:52.013Z,53.68
2022-09-01T07:42:31.425Z,56.07
2022-09-01T07:46:00.512Z,53.55
2022-09-01T07:48:37.240Z,51.69
2022-09-01T07:51:36.997Z,50.21
2022-09-01T07:54:05.968Z,49.95
2022-09-01T07:56:39.418Z,49.95
2022-09-01T07:59:15.309Z,50.57
2022-09-01T08:02:18.349Z,49.92
2022-09-01T08:04:47.036Z,48.15
2022-09-01T08:07:16.327Z,49.02
2022-09-01T08:09:44.630Z,47.77
2022-09-01T08:12:13.436Z,48.10
2022-09-01T08:14:46.774Z,48.95
2022-09-01T08:17:18.411Z,48.81
2022-09-01T08:20:07.425Z,46.13
2022-09-01T08:22:54.616Z,48.21
2022-09-01T08:25:29.162Z,46.58
2022-09-01T08:28:00.297Z,46.57
2022-09-01T08:30:28.663Z,48.93
2022-09-01T08:32:55.854Z,47.39
2022-09-01T08:35:23.463Z,46.30
2022-09-01T08:37:50.562Z,46.68
2022-09-01T08:40:20.772Z,46.99
2022-09-01T08:43:15.479Z,46.86
2022-09-01T08:45:49.780Z,46.83
2022-09-01T08:51:24.700Z,47.79
2022-09-01T08:54:05.015Z,48.77
2022-09-01T08:56:36.135Z,47.65
2022-09-01T08:59:04.239Z,48.52
2022-09-01T09:02:16.181Z,49.13
2022-09-01T09:05:15.589Z,49.56
2022-09-01T09:08:12.562Z,49.22
2022-09-01T09:10:52.254Z,49.47
2022-09-01T09:13:22.322Z,49.97
2022-09-01T09:16:14.471Z,49.80
2022-09-01T09:18:57.765Z,50.48
2022-09-01T09:21:30.249Z,50.80
2022-09-01T09:24:07.236Z,50.39
2022-09-01T09:26:49.331Z,51.64
2022-09-01T09:29:18.153Z,51.79
2022-09-01T09:31:50.357Z,51.06
2022-09-01T09:34:37.773Z,51.76
2022-09-01T09:37:30.622Z,50.46
2022-09-01T09:40:11.131Z,50.45
2022-09-01T09:42:40.591Z,50.52
2022-09-01T09:45:29.727Z,50.02
2022-09-01T09:47:58.199Z,51.93
2022-09-01T09:50:33.580Z,49.85
2022-09-01T09:53:28.690Z,50.28
2022-09-01T09:55:58.185Z,51.01
2022-09-01T09:58:34.698Z,50.99
2022-09-01T10:01:18.185Z,53.11
2022-09-01T10:03:50.472Z,51.67
2022-09-01T10:06:34.552Z,50.50
2022-09-01T10:09:21.579Z,50.09
2022-09-01T10:11:54.601Z,52.78
2022-09-01T10:14:35.583Z,52.54
2022-09-01T10:17:36.653Z,53.37
2022-09-01T10:20:17.639Z,52.51
2022-09-01T10:22:45.164Z,53.43
2022-09-01T10:25:18.015Z,53.59
2022-09-01T10:27:50.448Z,52.94
2022-09-01T10:30:20.540Z,53.90
2022-09-01T10:32:56.392Z,53.04
2022-09-01T10:35:26.798Z,52.53
2022-09-01T10:37:55.901Z,52.52
2022-09-01T10:40:31.013Z,53.66
2022-09-01T10:43:24.529Z,51.18
2022-09-01T10:45:57.668Z,51.70
2022-09-01T10:48:33.832Z,52.86
2022-09-01T10:51:19.278Z,53.29
2022-09-01T10:53:52.800Z,53.60
2022-09-01T10:56:29.469Z,55.39
2022-09-01T10:59:35.716Z,54.53
2022-09-01T11:02:35.641Z,55.70
2022-09-01T11:05:00.764Z,55.19
2022-09-01T11:07:57.964Z,54.43
2022-09-01T11:10:36.095Z,55.57
2022-09-01T11:13:24.202Z,54.78
2022-09-01T11:15:51.968Z,55.18
2022-09-01T11:18:29.409Z,53.98
2022-09-01T11:21:34.385Z,55.65
2022-09-01T11:24:50.851Z,56.96
2022-09-01T11:27:49.657Z,54.61
2022-09-01T11:30:22.586Z,55.87
2022-09-01T11:32:58.393Z,55.93
2022-09-01T11:35:28.458Z,56.55
2022-09-01T11:38:01.866Z,56.89
2022-09-01T11:40:32.905Z,55.55
2022-09-01T11:43:09.748Z,54.41
2022-09-01T11:45:58.465Z,55.48
2022-09-01T11:48:26.975Z,56.38
2022-09-01T11:51:00.961Z,57.15
2022-09-01T11:53:29.077Z,57.75
2022-09-01T11:56:12.034Z,59.03
2022-09-01T11:58:41.895Z,58.81
2022-09-01T12:01:30.911Z,60.94
2022-09-01T12:03:58.950Z,60.35
2022-09-01T12:06:29.530Z,60.71
2022-09-01T12:09:03.963Z,60.47
2022-09-01T12:11:36.953Z,61.02
2022-09-01T12:14:11.094Z,61.14
2022-09-01T12:16:42.614Z,62.30
2022-09-01T12:19:27.546Z,61.64
2022-09-01T12:22:15.172Z,62.19
2022-09-01T12:24:54.223Z,61.51
2022-09-01T12:27:25.214Z,62.05
2022-09-01T12:29:52.276Z,61.90
2022-09-01T12:32:20.064Z,62.29
2022-09-01T12:35:09.192Z,61.95
2022-09-01T12:37:38.571Z,62.30
2022-09-01T12:40:05.752Z,61.96
2022-09-01T12:42:40.996Z,63.24
2022-09-01T12:45:10.939Z,62.62
2022-09-01T12:47:37.757Z,62.47
2022-09-01T12:50:09.224Z,62.52
2022-09-01T12:52:44.915Z,62.49
2022-09-01T12:58:09.799Z,63.57
2022-09-01T13:00:55.867Z,62.35
2022-09-01T13:03:23.420Z,62.85
2022-09-01T13:05:55.568Z,62.50
2022-09-01T13:08:31.491Z,62.54
2022-09-01T13:11:11.172Z,63.70
2022-09-01T13:13:38.673Z,63.17
2022-09-01T13:16:13.085Z,63.92
2022-09-01T13:21:30.368Z,64.94
2022-09-01T13:23:57.581Z,64.20
2022-09-01T13:26:24.474Z,65.66
2022-09-01T13:28:51.725Z,66.48
2022-09-01T13:31:34.506Z,66.88
2022-09-01T13:34:10.687Z,67.56
2022-09-01T13:36:52.057Z,67.89
2022-09-01T13:39:20.937Z,68.52
2022-09-01T13:41:48.725Z,68.58
2022-09-01T13:44:17.315Z,68.98
2022-09-01T13:47:28.310Z,68.36
2022-09-01T13:52:19.747Z,68.53
2022-09-01T13:54:47.851Z,68.59
2022-09-01T13:57:16.514Z,68.35
2022-09-01T13:59:44.364Z,68.81
2022-09-01T14:02:11.244Z,68.46
2022-09-01T14:04:38.584Z,68.81
2022-09-01T14:07:06.298Z,69.13
2022-09-01T14:09:34.825Z,69.28
2022-09-01T14:12:01.743Z,69.72
2022-09-01T14:15:10.650Z,69.58
2022-09-01T14:17:15.694Z,70.76
2022-09-01T14:19:42.532Z,70.02
2022-09-01T14:22:09.474Z,69.37
2022-09-01T14:24:38.866Z,70.08
2022-09-01T14:27:07.836Z,70.04
2022-09-01T14:29:35.049Z,69.45
2022-09-01T14:32:02.210Z,69.92
2022-09-01T14:34:30.791Z,69.97
2022-09-01T14:36:57.899Z,70.21
2022-09-01T14:39:25.538Z,69.06
2022-09-01T14:41:52.370Z,69.04
2022-09-01T14:44:19.105Z,69.16
2022-09-01T14:46:47.314Z,69.46
2022-09-01T14:49:20.204Z,69.81
2022-09-01T14:54:49.529Z,71.01
2022-09-01T14:57:37.068Z,70.46
2022-09-01T15:00:05.882Z,71.18
2022-09-01T15:02:33.289Z,70.80
2022-09-01T15:05:00.149Z,71.22
2022-09-01T15:07:26.983Z,71.17
2022-09-01T15:09:53.953Z,70.75
2022-09-01T15:12:22.424Z,71.32
2022-09-01T15:14:49.245Z,70.74
2022-09-01T15:17:16.073Z,71.63
2022-09-01T15:19:43.646Z,71.55
2022-09-01T15:22:13.000Z,70.54
2022-09-01T15:24:40.000Z,71.66
2022-09-01T15:27:10.132Z,71.07
2022-09-01T15:29:45.945Z,71.56
2022-09-01T15:32:20.559Z,72.56
2022-09-01T15:34:54.493Z,72.71
2022-09-01T15:37:21.299Z,72.83
2022-09-01T15:39:48.081Z,73.42
2022-09-01T15:42:17.434Z,73.65
2022-09-01T15:44:44.746Z,73.89
2022-09-01T15:47:11.453Z,74.22
2022-09-01T15:49:38.200Z,74.91
2022-09-01T15:52:04.926Z,74.68
2022-09-01T15:54:31.842Z,75.04
2022-09-01T15:56:58.591Z,74.40
2022-09-01T15:59:25.448Z,73.76
2022-09-01T16:01:54.095Z,74.42
2022-09-01T16:04:25.409Z,74.07
2022-09-01T16:06:56.698Z,74.45
2022-09-01T16:09:25.647Z,74.86
2022-09-01T16:11:53.982Z,74.52
2022-09-01T16:14:21.240Z,74.04
2022-09-01T16:16:47.965Z,73.57
2022-09-01T16:19:33.511Z,74.00
2022-09-01T16:22:18.454Z,74.50
2022-09-01T16:24:47.990Z,75.25
2022-09-01T16:27:21.498Z,74.87
2022-09-01T16:30:02.943Z,75.28
2022-09-01T16:32:31.549Z,75.04
2022-09-01T16:34:58.317Z,74.84
2022-09-01T16:37:36.013Z,75.76
2022-09-01T16:40:16.491Z,75.48
2022-09-01T16:42:58.477Z,75.60
2022-09-01T16:45:30.934Z,76.05
2022-09-01T16:48:17.625Z,76.70
2022-09-01T16:50:51.609Z,77.12
2022-09-01T16:53:26.934Z,77.10
2022-09-01T16:55:59.645Z,76.89
2022-09-01T16:58:39.293Z,77.27
2022-09-01T17:01:15.575Z,77.57
2022-09-01T17:04:02.725Z,78.35
2022-09-01T17:06:33.637Z,78.23
2022-09-01T17:09:09.982Z,78.74
2022-09-01T17:11:49.256Z,78.84
2022-09-01T17:14:31.563Z,79.00
2022-09-01T17:17:12.114Z,78.39
2022-09-01T17:19:45.394Z,79.01
2022-09-01T17:22:14.518Z,79.05
2022-09-01T17:24:45.137Z,78.72
2022-09-01T17:27:20.935Z,78.95
2022-09-01T17:29:53.260Z,79.54
2022-09-01T17:32:30.987Z,79.10
2022-09-01T17:35:07.791Z,79.55
2022-09-01T17:37:51.746Z,79.37
2022-09-01T17:40:42.193Z,79.41
2022-09-01T17:43:21.118Z,79.20
2022-09-01T17:46:28.489Z,79.42
2022-09-01T17:49:27.558Z,79.97
2022-09-01T17:52:20.509Z,79.89
2022-09-01T17:55:07.170Z,79.83
2022-09-01T17:58:00.482Z,79.53
2022-09-01T18:00:52.716Z,79.69
2022-09-01T18:03:52.683Z,80.50
2022-09-01T18:06:25.114Z,80.33
2022-09-01T18:08:55.560Z,80.48
2022-09-01T18:11:35.776Z,80.41
2022-09-01T18:14:08.793Z,80.06
2022-09-01T18:16:44.052Z,80.98
2022-09-01T18:19:21.086Z,81.24
2022-09-01T18:22:01.413Z,81.52
2022-09-01T18:24:55.929Z,81.37
2022-09-01T18:27:24.636Z,81.37
2022-09-01T18:29:53.043Z,81.42
2022-09-01T18:32:35.081Z,81.84
2022-09-01T18:35:01.798Z,82.26
2022-09-01T18:38:01.393Z,81.88
2022-09-01T18:40:51.302Z,82.59
2022-09-01T18:43:26.919Z,82.32
2022-09-01T18:46:37.365Z,82.97
2022-09-01T18:49:24.883Z,82.73
2022-09-01T18:52:05.267Z,82.76
2022-09-01T18:54:38.235Z,82.76
2022-09-01T18:57:07.689Z,82.87
2022-09-01T18:59:56.277Z,83.14
2022-09-01T19:02:23.632Z,83.15
2022-09-01T19:04:57.541Z,82.77
2022-09-01T19:07:39.683Z,83.27
2022-09-01T19:10:06.555Z,83.49
2022-09-01T19:12:48.890Z,84.25
2022-09-01T19:15:35.093Z,83.77
2022-09-01T19:18:13.462Z,83.84
2022-09-01T19:21:06.469Z,84.24
2022-09-01T19:23:51.652Z,83.59
2022-09-01T19:26:22.651Z,83.66
2022-09-01T19:29:05.234Z,83.93
2022-09-01T19:31:35.146Z,83.92
2022-09-01T19:34:25.628Z,83.88
2022-09-01T19:36:56.141Z,83.82
2022-09-01T19:39:50.873Z,84.12
2022-09-01T19:42:20.121Z,84.10
2022-09-01T19:45:25.864Z,83.59
2022-09-01T19:48:04.278Z,83.90
2022-09-01T19:50:48.576Z,83.60
2022-09-01T19:53:32.973Z,84.06
2022-09-01T19:56:02.473Z,84.11
2022-09-01T19:58:51.672Z,84.61
2022-09-01T20:01:30.747Z,84.10
2022-09-01T20:04:11.514Z,84.05
2022-09-01T20:06:43.440Z,83.74
2022-09-01T20:09:23.227Z,84.16
2022-09-01T20:11:59.002Z,83.70
2022-09-01T20:14:25.718Z,84.22
2022-09-01T20:16:57.847Z,84.18
2022-09-01T20:22:41.227Z,84.38
2022-09-01T20:25:13.292Z,83.95
2022-09-01T20:27:56.169Z,83.89
2022-09-01T20:30:29.494Z,84.17
2022-09-01T20:33:41.832Z,84.55
2022-09-01T20:36:25.049Z,84.71
2022-09-01T20:39:21.248Z,84.27
2022-09-01T20:42:08.398Z,84.51
2022-09-01T20:44:48.215Z,84.57
2022-09-01T20:47:15.076Z,84.63
2022-09-01T20:49:42.444Z,84.50
2022-09-01T20:52:27.871Z,84.52
2022-09-01T20:55:04.174Z,84.38
2022-09-01T20:57:47.383Z,84.97
2022-09-01T21:00:25.847Z,84.79
2022-09-01T21:03:02.780Z,85.53
2022-09-01T21:05:36.121Z,84.92
2022-09-01T21:08:14.061Z,85.28
2022-09-01T21:10:40.906Z,85.32
2022-09-01T21:14:08.923Z,85.39
2022-09-01T21:16:56.372Z,85.54
2022-09-01T21:19:28.221Z,85.80
2022-09-01T21:22:07.014Z,85.50
2022-09-01T21:24:35.005Z,85.83
2022-09-01T21:27:07.329Z,85.80
2022-09-01T21:29:55.712Z,85.78
2022-09-01T21:32:23.243Z,86.12
2022-09-01T21:34:50.671Z,86.15
2022-09-01T21:37:18.584Z,86.12
2022-09-01T21:39:45.409Z,86.41
2022-09-01T21:42:13.138Z,86.94
2022-09-01T21:44:41.251Z,86.45
2022-09-01T21:47:08.387Z,86.70
2022-09-01T21:49:35.290Z,86.66
2022-09-01T21:52:02.481Z,86.55
2022-09-01T21:54:29.302Z,86.82
2022-09-01T21:56:56.226Z,86.86
2022-09-01T21:59:23.202Z,87.15
2022-09-01T22:01:49.988Z,86.79
2022-09-01T22:04:18.313Z,86.79
2022-09-01T22:06:46.435Z,87.10
2022-09-01T22:09:20.342Z,87.03
2022-09-01T22:11:49.190Z,86.96
2022-09-01T22:14:16.190Z,87.39
2022-09-01T22:16:43.071Z,87.69
2022-09-01T22:19:09.880Z,87.33
2022-09-01T22:21:37.891Z,87.37
2022-09-01T22:24:05.808Z,87.53
2022-09-01T22:26:34.112Z,87.53
2022-09-01T22:29:04.697Z,87.76
2022-09-01T22:31:33.254Z,87.49
2022-09-01T22:34:01.113Z,87.74
2022-09-01T22:36:31.470Z,87.74
2022-09-01T22:38:59.729Z,87.68
2022-09-01T22:41:28.985Z,88.09
2022-09-01T22:43:57.944Z,88.35
2022-09-01T22:46:27.805Z,88.13
2022-09-01T22:48:59.036Z,88.21
2022-09-01T22:51:26.993Z,88.10
2022-09-01T22:53:54.660Z,88.46
2022-09-01T22:56:28.148Z,88.44
2022-09-01T22:58:57.924Z,88.37
2022-09-01T23:01:30.130Z,88.41
2022-09-01T23:04:00.133Z,88.96
2022-09-01T23:06:29.715Z,88.23
2022-09-01T23:08:59.381Z,88.58
2022-09-01T23:11:27.106Z,88.21
2022-09-01T23:13:54.847Z,88.43
2022-09-01T23:16:23.185Z,88.02
2022-09-01T23:18:51.483Z,88.57
2022-09-01T23:21:21.913Z,88.87
2022-09-01T23:23:48.889Z,88.79
2022-09-01T23:26:26.354Z,88.52
2022-09-01T23:28:53.248Z,88.20
2022-09-01T23:31:24.672Z,88.83
2022-09-01T23:33:51.582Z,88.56
2022-09-01T23:36:20.606Z,88.43
2022-09-01T23:38:48.021Z,88.59
2022-09-01T23:41:23.364Z,87.59
2022-09-01T23:43:51.745Z,87.91
2022-09-01T23:46:21.612Z,87.36
2022-09-01T23:48:48.463Z,88.08
2022-09-01T23:51:17.997Z,88.58
2022-09-01T23:53:46.550Z,88.95
2022-09-01T23:56:16.327Z,88.18
2022-09-01T23:58:43.679Z,89.20
